Time;durP1;ratioP1;P1;durP2;ratioP2;P2;SDS_P1;SDS_P2;PMS_P1;PMS_P2;Temp;Humidity;BMP_temperature;BMP_pressure;BME280_temperature;BME280_humidity;BME280_pressure;Samples;Min_cycle;Max_cycle;Signal;HPM_P1;HPM_P2
2023/10/23 00:00:43;;;;;;;4.57;2.00;;;;;;;18.77;93.78;100619.38;5068528;28;20028;-57
2023/10/23 00:03:09;;;;;;;4.63;2.10;;;;;;;18.71;92.59;100623.13;5081835;28;20063;-56
2023/10/23 00:05:35;;;;;;;5.40;2.33;;;;;;;18.61;93.44;100621.19;5088509;28;20111;-57
2023/10/23 00:08:01;;;;;;;8.02;2.47;;;;;;;18.70;92.89;100616.88;5071253;28;20035;-56
2023/10/23 00:10:28;;;;;;;3.90;2.17;;;;;;;18.62;93.43;100614.66;5071602;28;20025;-56
2023/10/23 00:12:55;;;;;;;8.88;2.80;;;;;;;18.64;92.28;100615.19;5071342;28;20063;-57
2023/10/23 00:15:21;;;;;;;4.30;1.98;;;;;;;18.62;91.97;100617.38;5071235;28;20111;-57
2023/10/23 00:17:47;;;;;;;6.13;2.08;;;;;;;18.61;92.64;100618.47;5070526;28;20032;-58
2023/10/23 00:20:13;;;;;;;5.60;2.22;;;;;;;18.54;93.69;100622.47;5071937;28;20055;-58
2023/10/23 00:22:40;;;;;;;4.78;2.15;;;;;;;18.49;93.37;100626.00;5081533;28;20024;-58
2023/10/23 00:25:06;;;;;;;4.50;2.45;;;;;;;18.54;93.07;100609.72;5084059;28;20145;-58
2023/10/23 00:27:32;;;;;;;4.75;2.17;;;;;;;18.50;93.16;100607.84;5087819;28;20406;-57
2023/10/23 00:30:00;;;;;;;3.20;1.73;;;;;;;18.50;93.04;100619.50;5087396;28;20047;-57
2023/10/23 00:32:27;;;;;;;7.55;2.35;;;;;;;18.60;93.19;100616.00;5075429;28;20039;-58
2023/10/23 00:34:53;;;;;;;5.30;2.13;;;;;;;18.60;93.46;100613.28;5075120;28;20067;-57
2023/10/23 00:37:19;;;;;;;5.00;1.77;;;;;;;18.61;93.68;100614.94;5080950;22;20028;-59
2023/10/23 00:39:45;;;;;;;5.95;2.55;;;;;;;18.62;93.04;100611.97;5074970;28;20033;-57
2023/10/23 00:42:12;;;;;;;9.68;2.40;;;;;;;18.61;93.10;100621.19;5074499;28;20048;-61
2023/10/23 00:44:38;;;;;;;8.05;2.22;;;;;;;18.49;93.33;100620.59;5075230;28;20020;-60
2023/10/23 00:47:05;;;;;;;6.00;2.33;;;;;;;18.47;92.51;100617.31;5074829;28;20028;-61
2023/10/23 00:49:32;;;;;;;7.45;2.35;;;;;;;18.47;93.11;100617.31;5075333;28;20421;-61
2023/10/23 00:52:00;;;;;;;4.63;2.10;;;;;;;18.45;92.74;100617.56;5074498;28;20032;-59
2023/10/23 00:54:27;;;;;;;11.93;2.78;;;;;;;18.26;93.30;100612.84;5070774;28;20041;-60
2023/10/23 00:56:54;;;;;;;4.93;2.13;;;;;;;18.18;93.33;100625.81;5054645;28;20025;-58
2023/10/23 00:59:20;;;;;;;6.95;2.05;;;;;;;18.14;93.82;100626.59;5059223;28;20037;-58
2023/10/23 01:01:47;;;;;;;5.32;2.15;;;;;;;18.20;94.65;100633.69;5062063;28;20449;-58
2023/10/23 01:04:13;;;;;;;6.32;1.90;;;;;;;18.08;94.88;100625.75;5074804;28;20421;-62
2023/10/23 01:06:40;;;;;;;4.13;1.98;;;;;;;18.15;94.29;100630.94;5074470;28;20032;-60
2023/10/23 01:09:06;;;;;;;4.32;2.03;;;;;;;18.11;93.45;100630.66;5074272;28;20035;-58
2023/10/23 01:11:33;;;;;;;3.70;1.73;;;;;;;18.14;93.99;100634.72;5074591;28;20410;-58
2023/10/23 01:13:59;;;;;;;4.13;1.70;;;;;;;18.07;93.74;100634.97;5074539;28;20467;-59
2023/10/23 01:16:25;;;;;;;4.60;1.70;;;;;;;17.93;94.06;100642.72;5073773;28;20051;-60
2023/10/23 01:18:51;;;;;;;3.75;1.92;;;;;;;17.89;94.34;100640.78;5074398;28;20032;-59
2023/10/23 01:21:18;;;;;;;5.53;1.70;;;;;;;17.97;94.83;100640.28;5074344;28;20033;-60
2023/10/23 01:23:45;;;;;;;4.70;1.45;;;;;;;17.89;95.67;100640.78;5074433;28;20024;-59
2023/10/23 01:26:11;;;;;;;3.60;1.50;;;;;;;17.94;95.01;100646.25;5072133;28;20504;-59
2023/10/23 01:28:37;;;;;;;4.63;1.70;;;;;;;17.76;95.93;100646.63;5074323;28;20021;-59
2023/10/23 01:31:04;;;;;;;9.93;2.42;;;;;;;17.79;96.27;100640.72;5072903;28;20428;-59
2023/10/23 01:33:30;;;;;;;5.70;2.00;;;;;;;17.84;96.20;100649.69;5073929;28;20024;-58
2023/10/23 01:35:56;;;;;;;12.77;2.50;;;;;;;17.92;95.69;100645.66;5073971;28;20024;-58
2023/10/23 01:38:22;;;;;;;2.83;1.58;;;;;;;17.93;95.42;100653.56;5072787;28;20083;-58
2023/10/23 01:40:49;;;;;;;4.25;1.92;;;;;;;17.98;95.29;100650.03;5069916;28;20032;-59
2023/10/23 01:43:15;;;;;;;7.47;2.25;;;;;;;17.89;95.81;100652.44;5073407;28;20025;-59
2023/10/23 01:45:41;;;;;;;4.93;2.15;;;;;;;17.79;96.74;100656.94;5073199;28;20508;-58
2023/10/23 01:48:07;;;;;;;6.65;1.65;;;;;;;17.97;96.20;100659.25;5072178;28;20033;-58
2023/10/23 01:50:34;;;;;;;3.72;1.45;;;;;;;17.87;96.71;100656.47;5073994;28;20429;-58
2023/10/23 01:53:00;;;;;;;5.63;1.80;;;;;;;17.86;96.84;100647.53;5074104;28;20028;-58
2023/10/23 01:55:26;;;;;;;3.72;1.70;;;;;;;17.87;96.40;100651.03;5073710;28;20031;-58
2023/10/23 01:57:53;;;;;;;5.32;1.63;;;;;;;17.63;97.76;100658.66;5074099;28;20067;-58
2023/10/23 02:00:19;;;;;;;3.85;1.77;;;;;;;17.65;98.01;100657.31;5073460;28;20021;-58
2023/10/23 02:02:45;;;;;;;4.00;1.40;;;;;;;17.62;98.63;100663.28;5058122;28;20056;-58
2023/10/23 02:05:11;;;;;;;5.38;2.10;;;;;;;17.74;97.43;100657.72;5053699;28;20029;-58
2023/10/23 02:07:38;;;;;;;5.65;1.92;;;;;;;17.69;97.54;100658.47;5054013;28;20040;-58
2023/10/23 02:10:04;;;;;;;6.82;1.98;;;;;;;17.65;97.20;100664.63;5053408;28;20040;-58
2023/10/23 02:12:32;;;;;;;5.10;1.58;;;;;;;17.64;98.06;100660.31;5053695;28;20075;-58
2023/10/23 02:14:58;;;;;;;7.57;1.65;;;;;;;17.76;97.75;100657.44;5053659;28;20029;-59
2023/10/23 02:17:25;;;;;;;6.35;1.50;;;;;;;17.68;98.38;100647.91;5071373;28;20071;-58
2023/10/23 02:19:51;;;;;;;8.73;1.70;;;;;;;17.76;97.97;100649.34;5072616;28;20043;-58
2023/10/23 02:22:18;;;;;;;7.45;1.83;;;;;;;17.74;97.35;100656.91;5051713;28;20467;-59
2023/10/23 02:24:45;;;;;;;3.25;1.63;;;;;;;17.60;98.05;100649.19;5063664;28;20501;-58
2023/10/23 02:27:12;;;;;;;2.97;1.65;;;;;;;17.44;99.55;100652.81;5075299;28;20032;-59
2023/10/23 02:29:40;;;;;;;2.97;1.80;;;;;;;17.51;98.82;100660.72;5056937;28;20518;-58
2023/10/23 02:32:07;;;;;;;3.63;1.45;;;;;;;17.63;98.79;100656.78;5073326;28;20036;-58
2023/10/23 02:34:36;;;;;;;5.28;1.75;;;;;;;17.46;99.79;100652.56;5073010;28;20391;-58
2023/10/23 02:37:03;;;;;;;5.03;1.95;;;;;;;17.39;99.77;100648.19;5073011;28;20143;-58
2023/10/23 02:39:29;;;;;;;5.80;1.92;;;;;;;17.35;100.00;100651.66;5072858;28;20421;-58
2023/10/23 02:41:56;;;;;;;4.30;1.60;;;;;;;17.39;100.00;100659.00;5069708;28;20029;-58
2023/10/23 02:44:22;;;;;;;6.30;1.80;;;;;;;17.46;100.00;100664.19;5072961;28;20537;-58
2023/10/23 02:46:48;;;;;;;1.92;1.65;;;;;;;17.41;100.00;100662.25;5072567;28;20381;-58
2023/10/23 02:49:14;;;;;;;4.35;1.90;;;;;;;17.46;100.00;100653.38;5072013;28;20036;-58
2023/10/23 02:51:41;;;;;;;5.68;1.52;;;;;;;17.46;100.00;100650.66;5072549;28;20107;-58
2023/10/23 02:54:07;;;;;;;4.43;1.92;;;;;;;17.37;100.00;100650.31;5071626;28;20020;-58
2023/10/23 02:56:33;;;;;;;4.57;1.55;;;;;;;17.43;100.00;100643.06;5071714;28;20033;-57
2023/10/23 02:58:59;;;;;;;3.45;1.88;;;;;;;17.48;100.00;100640.41;5072545;28;20028;-57
2023/10/23 03:01:26;;;;;;;3.90;2.30;;;;;;;17.50;100.00;100634.75;5059854;28;20013;-57
2023/10/23 03:03:52;;;;;;;4.88;1.88;;;;;;;17.39;100.00;100633.84;5052581;28;20021;-57
2023/10/23 03:06:18;;;;;;;4.95;2.40;;;;;;;17.39;100.00;100631.94;5070911;28;20060;-57
2023/10/23 03:08:44;;;;;;;3.83;1.80;;;;;;;17.31;100.00;100645.91;5072187;28;20035;-58
2023/10/23 03:11:11;;;;;;;8.57;2.13;;;;;;;17.25;100.00;100643.41;5070044;28;20027;-58
2023/10/23 03:13:37;;;;;;;6.45;2.10;;;;;;;17.23;100.00;100642.88;5071348;28;20032;-58
2023/10/23 03:16:04;;;;;;;4.72;2.20;;;;;;;17.31;100.00;100645.91;5069830;28;20090;-57
2023/10/23 03:18:30;;;;;;;4.60;1.90;;;;;;;17.30;100.00;100654.28;5071067;28;20037;-58
2023/10/23 03:21:00;;;;;;;5.78;3.17;;;;;;;17.14;100.00;100645.19;5072232;28;20475;-58
2023/10/23 03:23:29;;;;;;;5.70;3.10;;;;;;;17.11;100.00;100641.13;5072085;28;20024;-58
2023/10/23 03:25:56;;;;;;;7.57;3.20;;;;;;;17.12;100.00;100645.47;5070595;28;20100;-58
2023/10/23 03:28:22;;;;;;;6.13;2.60;;;;;;;17.14;100.00;100643.31;5068443;28;20027;-58
2023/10/23 03:30:48;;;;;;;4.10;2.25;;;;;;;17.20;100.00;100648.78;5070619;28;20086;-58
2023/10/23 03:33:15;;;;;;;6.35;2.17;;;;;;;17.26;100.00;100650.47;5072601;28;20513;-57
2023/10/23 03:35:43;;;;;;;3.95;2.10;;;;;;;17.34;100.00;100652.72;5072084;28;20367;-57
2023/10/23 03:38:09;;;;;;;4.05;2.00;;;;;;;17.30;100.00;100654.28;5071925;28;20044;-57
2023/10/23 03:40:35;;;;;;;4.38;1.40;;;;;;;17.25;100.00;100654.25;5071720;28;20039;-57
2023/10/23 03:43:01;;;;;;;5.47;1.77;;;;;;;17.23;100.00;100648.28;5071834;28;20032;-57
2023/10/23 03:45:28;;;;;;;3.67;1.65;;;;;;;17.29;100.00;100655.38;5071699;28;20066;-56
2023/10/23 03:47:54;;;;;;;8.30;1.90;;;;;;;17.21;100.00;100650.41;5071812;28;20020;-60
2023/10/23 03:50:20;;;;;;;7.18;2.08;;;;;;;17.24;100.00;100644.50;5071680;28;20017;-57
2023/10/23 03:52:46;;;;;;;5.63;1.77;;;;;;;17.21;100.00;100647.69;5071899;28;20032;-57
2023/10/23 03:55:13;;;;;;;4.88;1.63;;;;;;;17.13;100.00;100651.69;5071687;28;20052;-57
2023/10/23 03:57:39;;;;;;;4.75;2.03;;;;;;;17.24;100.00;100658.03;5071411;28;20522;-57
2023/10/23 04:00:06;;;;;;;3.55;2.03;;;;;;;17.22;100.00;100661.00;5070729;28;20133;-58
2023/10/23 04:02:32;;;;;;;6.88;2.72;;;;;;;17.28;100.00;100667.28;5057852;28;20070;-58
2023/10/23 04:04:58;;;;;;;3.97;2.25;;;;;;;17.13;100.00;100654.38;5072663;28;20140;-58
2023/10/23 04:07:25;;;;;;;3.83;2.70;;;;;;;17.17;100.00;100655.53;5091613;28;20028;-58
2023/10/23 04:09:51;;;;;;;3.15;2.25;;;;;;;17.20;100.00;100648.78;5091708;28;20066;-58
2023/10/23 04:12:17;;;;;;;4.72;2.50;;;;;;;17.23;100.00;100653.69;5091821;28;20416;-57
2023/10/23 04:14:46;;;;;;;3.65;2.00;;;;;;;17.26;100.00;100651.28;5086847;28;20490;-58
2023/10/23 04:17:13;;;;;;;3.67;2.85;;;;;;;17.31;100.00;100658.63;5070878;28;20029;-57
2023/10/23 04:19:39;;;;;;;3.80;2.60;;;;;;;17.11;100.00;100656.53;5071344;28;20085;-58
2023/10/23 04:22:06;;;;;;;2.72;1.88;;;;;;;17.11;100.00;100664.66;5071332;28;20070;-58
2023/10/23 04:24:32;;;;;;;2.88;1.90;;;;;;;17.14;100.00;100658.72;5071681;28;20039;-58
2023/10/23 04:26:59;;;;;;;2.53;1.35;;;;;;;17.06;100.00;100667.31;5053584;28;20032;-57
2023/10/23 04:29:25;;;;;;;1.17;1.08;;;;;;;17.29;100.00;100658.88;5051376;28;20104;-57
2023/10/23 04:31:51;;;;;;;1.42;1.05;;;;;;;17.24;100.00;100658.84;5056799;28;20021;-57
2023/10/23 04:34:17;;;;;;;1.45;0.82;;;;;;;17.31;100.00;100664.84;5071090;28;20024;-58
2023/10/23 04:36:44;;;;;;;1.85;1.33;;;;;;;17.22;100.00;100660.19;5070737;28;20032;-58
2023/10/23 04:39:10;;;;;;;2.45;1.33;;;;;;;17.12;100.00;100658.97;5071082;28;20120;-58
2023/10/23 04:41:36;;;;;;;2.80;1.40;;;;;;;17.19;100.00;100668.78;5071074;28;20079;-58
2023/10/23 04:44:03;;;;;;;3.20;1.48;;;;;;;17.32;100.00;100669.22;5071420;28;20044;-57
2023/10/23 04:46:29;;;;;;;2.30;1.40;;;;;;;17.18;100.00;100667.16;5070947;28;20032;-57
2023/10/23 04:48:56;;;;;;;1.77;1.40;;;;;;;17.13;100.00;100668.72;5071195;28;20029;-58
2023/10/23 04:51:22;;;;;;;2.33;1.90;;;;;;;17.05;100.00;100671.06;5070822;28;20039;-58
2023/10/23 04:53:48;;;;;;;2.67;2.45;;;;;;;17.25;100.00;100675.88;5071142;28;20029;-57
2023/10/23 04:56:15;;;;;;;2.70;1.55;;;;;;;17.11;100.00;100668.16;5070571;28;20029;-57
2023/10/23 04:58:41;;;;;;;2.33;1.45;;;;;;;17.12;100.00;100682.50;5070214;28;20370;-57
2023/10/23 05:01:16;;;;;;;3.05;1.80;;;;;;;16.91;100.00;100689.56;5066774;28;20025;-57
2023/10/23 05:03:42;;;;;;;1.60;1.40;;;;;;;17.07;100.00;100688.66;5071307;28;20029;-57
2023/10/23 05:06:08;;;;;;;1.58;1.20;;;;;;;17.22;100.00;100695.34;5066597;28;20556;-58
2023/10/23 05:08:35;;;;;;;1.05;0.70;;;;;;;17.30;100.00;100692.16;5069011;28;20169;-58
2023/10/23 05:11:08;;;;;;;0.95;0.60;;;;;;;17.23;100.00;100700.50;5069827;28;20502;-58
2023/10/23 05:13:34;;;;;;;2.05;0.63;;;;;;;17.33;100.00;100699.78;5074701;28;20043;-58
2023/10/23 05:16:07;;;;;;;0.85;0.60;;;;;;;17.35;100.00;100695.75;5073543;28;20507;-58
2023/10/23 05:18:34;;;;;;;0.60;0.60;;;;;;;17.22;100.00;100693.44;5074698;28;20028;-57
2023/10/23 05:21:10;;;;;;;1.23;0.70;;;;;;;17.15;100.00;100692.81;5073549;28;20025;-58
2023/10/23 05:23:40;;;;;;;1.33;0.68;;;;;;;17.29;100.00;100690.53;5074687;28;20024;-57
2023/10/23 05:26:10;;;;;;;1.00;0.70;;;;;;;17.21;100.00;100689.09;5074155;28;20077;-58
2023/10/23 05:28:40;;;;;;;2.15;0.93;;;;;;;17.15;100.00;100685.50;5074380;28;20486;-57
2023/10/23 05:31:07;;;;;;;0.93;0.63;;;;;;;17.23;100.00;100688.84;5074425;28;20032;-57
2023/10/23 05:33:34;;;;;;;2.88;1.10;;;;;;;17.28;100.00;100688.91;5071117;28;20078;-57
2023/10/23 05:36:04;;;;;;;3.65;2.00;;;;;;;17.18;100.00;100688.78;5069611;28;20112;-57
2023/10/23 05:38:32;;;;;;;2.25;1.35;;;;;;;17.22;100.00;100698.03;5074182;28;20044;-57
2023/10/23 05:40:59;;;;;;;2.30;1.50;;;;;;;17.19;100.00;100696.66;5073115;28;20032;-57
2023/10/23 05:43:29;;;;;;;2.65;1.65;;;;;;;17.15;100.00;100692.81;5074212;28;20032;-57
2023/10/23 05:45:56;;;;;;;2.97;1.70;;;;;;;17.23;100.00;100697.78;5072802;28;20083;-57
2023/10/23 05:48:22;;;;;;;3.63;1.88;;;;;;;17.19;100.00;100696.66;5074159;28;20074;-57
2023/10/23 05:51:05;;;;;;;3.00;1.70;;;;;;;17.19;100.00;100688.53;5074078;28;20078;-57
2023/10/23 05:53:32;;;;;;;2.10;1.38;;;;;;;17.25;100.00;100697.53;5074059;28;20099;-57
2023/10/23 05:56:07;;;;;;;3.22;1.30;;;;;;;17.24;100.00;100693.19;5067014;28;20024;-57
2023/10/23 05:58:34;;;;;;;2.22;1.38;;;;;;;17.17;100.00;100700.69;5060279;28;20490;-57
2023/10/23 06:01:05;;;;;;;3.58;1.25;;;;;;;17.25;100.00;100697.53;5060458;28;20111;-57
2023/10/23 06:03:31;;;;;;;2.00;1.27;;;;;;;17.22;100.00;100698.03;5053535;28;20033;-57
2023/10/23 06:05:57;;;;;;;2.10;1.20;;;;;;;17.26;100.00;100699.97;5059943;28;20032;-57
2023/10/23 06:08:24;;;;;;;1.75;1.00;;;;;;;17.19;100.00;100696.66;5073958;28;20518;-56
2023/10/23 06:10:50;;;;;;;2.25;1.20;;;;;;;17.32;100.00;100703.53;5070454;28;20032;-56
2023/10/23 06:13:16;;;;;;;1.95;0.80;;;;;;;17.28;100.00;100699.72;5072556;28;20167;-55
2023/10/23 06:15:43;;;;;;;3.75;1.05;;;;;;;17.17;100.00;100696.09;5072813;28;20024;-55
2023/10/23 06:18:09;;;;;;;2.17;0.80;;;;;;;17.35;100.00;100701.16;5073376;28;20041;-54
2023/10/23 06:20:35;;;;;;;2.50;0.77;;;;;;;17.32;100.00;100701.69;5073634;28;20027;-54
2023/10/23 06:23:03;;;;;;;2.03;0.85;;;;;;;17.24;100.00;100702.13;5070701;28;20097;-57
2023/10/23 06:25:31;;;;;;;4.78;1.08;;;;;;;17.19;100.00;100695.84;5072906;28;20032;-57
2023/10/23 06:27:59;;;;;;;1.33;0.90;;;;;;;17.25;100.00;100702.94;5073126;28;20077;-57
2023/10/23 06:30:25;;;;;;;1.42;0.88;;;;;;;17.31;100.00;100707.31;5073188;28;20094;-57
2023/10/23 06:32:52;;;;;;;2.20;1.02;;;;;;;17.32;100.00;100704.38;5070947;28;20136;-58
2023/10/23 06:35:18;;;;;;;1.73;0.98;;;;;;;17.38;100.00;100706.06;5070964;28;20486;-57
2023/10/23 06:37:44;;;;;;;1.90;1.10;;;;;;;17.35;100.00;100711.97;5072532;28;20052;-57
2023/10/23 06:40:11;;;;;;;2.10;1.35;;;;;;;17.09;100.00;100713.56;5072984;28;20024;-58
2023/10/23 06:42:37;;;;;;;2.72;1.15;;;;;;;17.25;100.00;100713.75;5072912;28;20024;-57
2023/10/23 06:45:04;;;;;;;3.40;1.45;;;;;;;17.22;100.00;100712.38;5069846;28;20043;-58
2023/10/23 06:47:30;;;;;;;2.30;0.90;;;;;;;17.22;100.00;100715.09;5072752;28;20082;-57
2023/10/23 06:49:56;;;;;;;2.28;1.10;;;;;;;17.31;100.00;100721.66;5072522;28;20081;-57
2023/10/23 06:52:22;;;;;;;3.80;1.20;;;;;;;17.29;100.00;100712.19;5056604;28;20025;-57
2023/10/23 06:54:49;;;;;;;1.73;1.00;;;;;;;17.03;100.00;100719.97;5065368;28;20123;-57
2023/10/23 06:57:15;;;;;;;5.15;1.10;;;;;;;16.85;100.00;100717.59;5072635;28;20105;-57
2023/10/23 06:59:41;;;;;;;2.55;0.90;;;;;;;16.83;100.00;100717.84;5070189;28;20025;-57
2023/10/23 07:02:09;;;;;;;2.38;1.00;;;;;;;17.01;100.00;100719.44;5072325;28;20394;-58
2023/10/23 07:04:35;;;;;;;2.10;0.70;;;;;;;17.25;100.00;100724.56;5072578;28;20154;-57
2023/10/23 07:07:01;;;;;;;2.97;0.98;;;;;;;17.22;100.00;100715.09;5072460;28;20025;-58
2023/10/23 07:09:27;;;;;;;2.60;1.33;;;;;;;17.33;100.00;100716.03;5072433;28;20048;-58
2023/10/23 07:11:53;;;;;;;2.30;1.10;;;;;;;17.19;100.00;100710.16;5072188;28;20032;-58
2023/10/23 07:14:20;;;;;;;2.35;0.88;;;;;;;17.21;100.00;100713.44;5072290;28;20060;-57
2023/10/23 07:16:46;;;;;;;2.88;1.17;;;;;;;17.05;100.00;100717.88;5071882;28;20545;-57
2023/10/23 07:19:12;;;;;;;2.38;1.20;;;;;;;17.03;100.00;100719.97;5072319;28;20028;-57
2023/10/23 07:21:39;;;;;;;9.88;2.10;;;;;;;17.00;100.00;100712.38;5072072;28;20028;-57
2023/10/23 07:24:05;;;;;;;4.05;1.60;;;;;;;16.97;100.00;100714.78;5071766;28;20024;-58
2023/10/23 07:26:32;;;;;;;4.90;2.00;;;;;;;17.20;100.00;100714.50;5071691;28;20082;-58
2023/10/23 07:28:58;;;;;;;2.35;1.55;;;;;;;17.22;100.00;100716.97;5072107;28;20024;-58
2023/10/23 07:31:24;;;;;;;4.80;2.33;;;;;;;17.20;100.00;100719.09;5070194;28;20478;-57
2023/10/23 07:33:50;;;;;;;3.72;1.45;;;;;;;17.38;100.00;100725.00;5051844;28;20025;-58
2023/10/23 07:36:18;;;;;;;3.75;1.35;;;;;;;17.37;100.00;100723.34;5051957;28;20024;-57
2023/10/23 07:38:45;;;;;;;3.90;1.30;;;;;;;17.48;100.00;100724.28;5056209;28;20493;-58
2023/10/23 07:41:13;;;;;;;1.55;1.00;;;;;;;17.53;100.00;100732.44;5071955;28;20162;-58
2023/10/23 07:43:39;;;;;;;5.22;1.83;;;;;;;17.49;100.00;100735.91;5071736;28;20025;-58
2023/10/23 07:46:08;;;;;;;2.08;1.00;;;;;;;17.38;100.00;100741.25;5068505;28;20040;-58
2023/10/23 07:48:35;;;;;;;2.88;1.38;;;;;;;17.37;100.00;100741.47;5071305;28;20068;-58
2023/10/23 07:51:03;;;;;;;1.77;1.30;;;;;;;17.50;100.00;100740.28;5070835;28;20028;-58
2023/10/23 07:53:32;;;;;;;5.68;1.70;;;;;;;17.53;100.00;100742.47;5071725;28;20028;-57
2023/10/23 07:55:59;;;;;;;2.88;1.35;;;;;;;17.51;100.00;100741.91;5071025;28;20378;-58
2023/10/23 07:58:25;;;;;;;6.07;1.58;;;;;;;17.40;100.00;100743.69;5071610;28;20025;-57
2023/10/23 08:01:04;;;;;;;3.75;1.80;;;;;;;17.17;100.00;100741.25;5068254;28;20020;-57
2023/10/23 08:03:30;;;;;;;2.65;1.77;;;;;;;17.19;100.00;100747.22;5071766;28;20178;-58
2023/10/23 08:05:57;;;;;;;3.90;2.05;;;;;;;17.06;100.00;100749.25;5071123;28;20032;-57
2023/10/23 08:08:23;;;;;;;3.33;1.67;;;;;;;17.13;100.00;100746.34;5070693;28;20094;-57
2023/10/23 08:10:49;;;;;;;4.97;2.22;;;;;;;16.85;100.00;100742.75;5071457;28;20024;-57
2023/10/23 08:13:15;;;;;;;3.28;1.95;;;;;;;17.00;100.00;100750.25;5071226;28;20559;-58
2023/10/23 08:15:43;;;;;;;3.38;1.88;;;;;;;17.01;100.00;100749.16;5067081;28;20059;-58
2023/10/23 08:18:09;;;;;;;3.97;2.15;;;;;;;17.17;100.00;100747.47;5071478;28;20040;-57
2023/10/23 08:20:36;;;;;;;3.47;2.13;;;;;;;17.25;100.00;100755.13;5070519;28;20115;-57
2023/10/23 08:23:02;;;;;;;4.80;1.95;;;;;;;17.26;100.00;100758.66;5070128;28;20120;-57
2023/10/23 08:25:28;;;;;;;3.75;2.25;;;;;;;16.86;100.00;100752.47;5071157;28;20111;-57
2023/10/23 08:27:54;;;;;;;5.97;2.80;;;;;;;16.76;100.00;100756.94;5071200;28;20024;-57
2023/10/23 08:30:21;;;;;;;4.05;2.67;;;;;;;17.05;100.00;100761.13;5069483;28;20374;-57
2023/10/23 08:32:47;;;;;;;5.60;2.58;;;;;;;17.10;100.00;100753.09;5057943;28;20128;-57
2023/10/23 08:35:13;;;;;;;2.47;1.90;;;;;;;17.05;100.00;100760.31;5065145;28;20024;-57
2023/10/23 08:37:40;;;;;;;3.33;2.15;;;;;;;16.84;100.00;100756.50;5071213;28;20060;-57
2023/10/23 08:40:06;;;;;;;3.78;2.03;;;;;;;16.86;100.00;100749.78;5071182;28;20029;-57
2023/10/23 08:42:34;;;;;;;3.63;2.33;;;;;;;16.80;100.00;100752.66;5071658;28;20101;-57
2023/10/23 08:45:00;;;;;;;4.70;1.88;;;;;;;16.65;100.00;100755.94;5070290;28;20035;-58
2023/10/23 08:47:27;;;;;;;2.97;2.72;;;;;;;16.48;100.00;100755.94;5073548;28;20028;-57
2023/10/23 08:49:54;;;;;;;4.03;2.33;;;;;;;16.54;100.00;100754.97;5074995;28;20407;-57
2023/10/23 08:52:22;;;;;;;4.95;2.65;;;;;;;16.57;100.00;100759.06;5074301;28;20055;-57
2023/10/23 08:54:52;;;;;;;2.15;1.80;;;;;;;16.61;100.00;100755.63;5074530;28;20028;-57
2023/10/23 08:57:20;;;;;;;1.88;1.20;;;;;;;16.73;100.00;100763.66;5074842;28;20029;-57
2023/10/23 08:59:46;;;;;;;1.80;1.00;;;;;;;16.74;100.00;100764.47;5073810;28;20021;-57
2023/10/23 09:02:14;;;;;;;1.33;0.80;;;;;;;16.80;100.00;100769.69;5073926;28;20377;-57
2023/10/23 09:04:40;;;;;;;1.08;1.00;;;;;;;16.97;100.00;100764.25;5073385;28;20028;-57
2023/10/23 09:07:06;;;;;;;1.50;0.88;;;;;;;16.98;100.00;100767.78;5074787;28;20024;-57
2023/10/23 09:09:32;;;;;;;1.65;1.00;;;;;;;16.84;100.00;100778.13;5074671;28;20032;-57
2023/10/23 09:11:59;;;;;;;3.10;0.80;;;;;;;17.03;100.00;100776.78;5074700;28;20024;-57
2023/10/23 09:14:31;;;;;;;3.67;1.92;;;;;;;16.86;100.00;100781.41;5074618;28;20025;-57
2023/10/23 09:17:03;;;;;;;2.60;2.40;;;;;;;16.88;100.00;100784.69;5074366;28;20471;-57
2023/10/23 09:19:36;;;;;;;2.00;1.80;;;;;;;16.72;100.00;100786.34;5074673;28;20035;-57
2023/10/23 09:22:12;;;;;;;1.35;1.25;;;;;;;16.55;100.00;100783.63;5074319;28;20095;-57
2023/10/23 09:24:38;;;;;;;2.47;1.42;;;;;;;16.72;100.00;100786.34;5070962;28;20028;-57
2023/10/23 09:27:05;;;;;;;2.25;1.30;;;;;;;16.54;100.00;100776.56;5073881;28;20024;-57
2023/10/23 09:29:32;;;;;;;1.58;1.40;;;;;;;16.54;100.00;100784.69;5073376;28;20027;-57
2023/10/23 09:31:59;;;;;;;2.35;1.38;;;;;;;16.40;100.00;100786.09;5067241;28;20021;-58
2023/10/23 09:34:25;;;;;;;2.33;1.50;;;;;;;16.56;100.00;100779.06;5054355;28;20032;-57
2023/10/23 09:36:53;;;;;;;1.67;1.35;;;;;;;16.63;100.00;100783.22;5054285;28;20029;-57
2023/10/23 09:39:22;;;;;;;2.67;1.30;;;;;;;16.76;100.00;100782.06;5064908;28;20063;-57
2023/10/23 09:41:49;;;;;;;2.35;1.58;;;;;;;16.68;100.00;100784.34;5074039;28;20169;-57
2023/10/23 09:44:17;;;;;;;2.38;1.10;;;;;;;16.80;100.00;100780.50;5070875;28;20036;-57
2023/10/23 09:46:43;;;;;;;2.97;1.27;;;;;;;17.00;100.00;100781.88;5073271;28;20028;-57
2023/10/23 09:49:10;;;;;;;2.00;1.40;;;;;;;17.00;100.00;100787.28;5074268;28;20414;-57
2023/10/23 09:51:41;;;;;;;1.95;1.38;;;;;;;16.83;100.00;100801.66;5073947;28;20021;-57
2023/10/23 09:54:16;;;;;;;2.30;1.50;;;;;;;16.89;100.00;100791.72;5073968;28;20025;-57
2023/10/23 09:56:50;;;;;;;2.35;1.75;;;;;;;16.74;100.00;100797.72;5073685;28;20078;-58
2023/10/23 09:59:19;;;;;;;2.67;1.77;;;;;;;16.94;100.00;100791.81;5072631;28;20025;-57
2023/10/23 10:01:49;;;;;;;2.55;1.60;;;;;;;16.71;100.00;100805.50;5073671;28;20291;-57
2023/10/23 10:04:28;;;;;;;2.30;1.67;;;;;;;16.87;100.00;100801.94;5070835;28;20025;-57
2023/10/23 10:07:10;;;;;;;4.00;2.10;;;;;;;16.51;100.00;100804.09;5073740;28;20028;-56
2023/10/23 10:09:37;;;;;;;2.10;1.77;;;;;;;16.74;100.00;100796.91;5072846;28;20571;-57
2023/10/23 10:12:05;;;;;;;2.97;1.85;;;;;;;16.60;100.00;100797.22;5073393;28;20462;-57
2023/10/23 10:14:32;;;;;;;2.17;1.98;;;;;;;16.73;100.00;100801.50;5069238;28;20024;-57
2023/10/23 10:17:00;;;;;;;2.10;1.70;;;;;;;16.65;100.00;100799.16;5073459;28;20028;-57
2023/10/23 10:19:27;;;;;;;3.25;2.13;;;;;;;16.49;100.00;100811.66;5073635;28;20035;-57
2023/10/23 10:22:14;;;;;;;2.17;1.55;;;;;;;16.67;100.00;100804.34;5072366;28;20082;-57
2023/10/23 10:24:42;;;;;;;2.05;1.45;;;;;;;16.83;100.00;100788.13;5073093;28;20068;-57
2023/10/23 10:27:09;;;;;;;1.75;1.65;;;;;;;16.94;100.00;100799.91;5073359;28;20082;-57
2023/10/23 10:29:35;;;;;;;2.25;1.90;;;;;;;16.81;100.00;100800.25;5071572;28;20177;-57
2023/10/23 10:32:09;;;;;;;2.38;1.90;;;;;;;16.72;100.00;100799.88;5068725;28;20025;-57
2023/10/23 10:34:51;;;;;;;1.50;1.40;;;;;;;16.87;100.00;100788.44;5073098;28;20024;-56
2023/10/23 10:37:17;;;;;;;2.25;1.75;;;;;;;16.98;100.00;100789.41;5072896;28;20032;-57
2023/10/23 10:39:48;;;;;;;1.88;1.45;;;;;;;16.81;100.00;100794.84;5073137;28;20024;-57
2023/10/23 10:42:19;;;;;;;1.73;1.38;;;;;;;16.92;100.00;100793.09;5069708;28;20085;-57
2023/10/23 10:44:56;;;;;;;1.55;1.38;;;;;;;16.86;100.00;100790.31;5071869;28;20024;-57
2023/10/23 10:47:42;;;;;;;1.67;1.50;;;;;;;16.96;100.00;100786.94;5072581;28;20107;-57
2023/10/23 10:50:10;;;;;;;1.13;1.02;;;;;;;17.25;100.00;100790.31;5072826;28;20393;-57
2023/10/23 10:52:38;;;;;;;1.70;1.20;;;;;;;17.18;100.00;100796.97;5070639;28;20036;-56
2023/10/23 10:55:05;;;;;;;1.25;1.15;;;;;;;16.99;100.00;100794.56;5072109;28;20028;-57
2023/10/23 10:57:32;;;;;;;2.17;1.10;;;;;;;16.80;100.00;100796.72;5072506;28;20029;-57
2023/10/23 10:59:59;;;;;;;1.42;1.33;;;;;;;16.80;100.00;100798.63;5072499;28;20024;-57
2023/10/23 11:02:26;;;;;;;2.08;1.45;;;;;;;16.89;100.00;100800.66;5071572;28;20036;-57
2023/10/23 11:04:52;;;;;;;1.48;1.30;;;;;;;16.85;100.00;100799.50;5072587;28;20036;-57
2023/10/23 11:07:25;;;;;;;0.82;0.80;;;;;;;16.82;100.00;100794.63;5072193;28;20031;-56
2023/10/23 11:09:53;;;;;;;1.52;1.30;;;;;;;16.82;100.00;100796.47;5069583;28;20024;-57
2023/10/23 11:12:20;;;;;;;1.90;1.58;;;;;;;16.82;100.00;100788.38;5060507;28;20472;-57
2023/10/23 11:14:47;;;;;;;1.40;1.30;;;;;;;16.80;100.00;100787.81;5072618;28;20111;-57
2023/10/23 11:17:14;;;;;;;3.08;1.60;;;;;;;16.74;100.00;100780.69;5072501;28;20032;-57
2023/10/23 11:19:42;;;;;;;1.48;1.38;;;;;;;16.76;100.00;100773.13;5072395;28;20067;-57